createdAt,value
2023-05-06T00:00:40.055Z,0
2023-05-06T00:02:40.082Z,0
2023-05-06T00:03:40.148Z,0
2023-05-06T00:05:40.044Z,0
2023-05-06T00:06:40.037Z,0
2023-05-06T00:07:40.328Z,0
2023-05-06T00:08:42.881Z,0
2023-05-06T00:09:46.327Z,0
2023-05-06T00:11:40.037Z,0
2023-05-06T00:12:40.077Z,0
2023-05-06T00:13:40.042Z,0
2023-05-06T00:14:40.031Z,0
2023-05-06T00:15:40.063Z,0
2023-05-06T00:16:40.164Z,0
2023-05-06T00:17:40.053Z,0
2023-05-06T00:18:40.048Z,0
2023-05-06T00:19:40.048Z,0
2023-05-06T00:21:40.036Z,0
2023-05-06T00:22:40.064Z,0
2023-05-06T00:23:40.052Z,0
2023-05-06T00:24:40.041Z,0
2023-05-06T00:26:40.040Z,0
2023-05-06T00:27:40.031Z,0
2023-05-06T00:28:40.434Z,0
2023-05-06T00:29:43.356Z,0
2023-05-06T00:30:45.849Z,0
2023-05-06T00:32:40.139Z,0
2023-05-06T00:33:40.202Z,0
2023-05-06T00:34:40.247Z,0
2023-05-06T00:35:40.360Z,0
2023-05-06T00:36:40.380Z,0
2023-05-06T00:38:40.047Z,0
2023-05-06T00:39:40.115Z,0
2023-05-06T00:41:40.048Z,0
2023-05-06T00:42:40.048Z,0
2023-05-06T00:44:40.075Z,0
2023-05-06T00:46:40.035Z,0
2023-05-06T00:47:40.078Z,0
2023-05-06T00:48:40.070Z,0
2023-05-06T00:49:40.519Z,0
2023-05-06T00:50:43.281Z,0
2023-05-06T00:51:45.982Z,0
2023-05-06T00:53:40.043Z,0
2023-05-06T00:54:40.064Z,0
2023-05-06T00:56:40.064Z,0
2023-05-06T00:57:40.056Z,0
2023-05-06T00:59:40.076Z,0
2023-05-06T01:00:40.217Z,0
2023-05-06T01:02:46.782Z,0
2023-05-06T01:03:40.254Z,0
2023-05-06T01:04:40.060Z,0
2023-05-06T01:05:40.065Z,0
2023-05-06T01:06:40.043Z,0
2023-05-06T01:07:40.045Z,0
2023-05-06T01:08:40.039Z,0
2023-05-06T01:09:40.054Z,0
2023-05-06T01:10:40.596Z,0
2023-05-06T01:11:43.212Z,0
2023-05-06T01:12:46.600Z,0
2023-05-06T01:14:40.053Z,0
2023-05-06T01:15:40.057Z,0
2023-05-06T01:17:40.090Z,0
2023-05-06T01:18:40.049Z,0
2023-05-06T01:19:40.050Z,0
2023-05-06T01:20:40.074Z,0
2023-05-06T01:22:40.053Z,0
2023-05-06T01:23:40.047Z,0
2023-05-06T01:24:40.046Z,0
2023-05-06T01:25:40.075Z,0
2023-05-06T01:27:40.050Z,0
2023-05-06T01:28:40.065Z,0
2023-05-06T01:29:40.060Z,0
2023-05-06T01:30:40.073Z,0
2023-05-06T01:32:40.913Z,0
2023-05-06T01:33:44.138Z,0
2023-05-06T01:34:46.812Z,0
2023-05-06T01:36:40.053Z,0
2023-05-06T01:37:40.058Z,0
2023-05-06T01:38:40.057Z,0
2023-05-06T01:39:40.056Z,0
2023-05-06T01:40:40.060Z,0
2023-05-06T01:41:40.053Z,0
2023-05-06T01:42:40.067Z,0
2023-05-06T01:44:40.064Z,0
2023-05-06T01:45:40.066Z,0
2023-05-06T01:47:40.055Z,0
2023-05-06T01:48:40.044Z,0
2023-05-06T01:49:40.054Z,0
2023-05-06T01:50:40.043Z,0
2023-05-06T01:51:40.056Z,0
2023-05-06T01:52:40.068Z,0
2023-05-06T01:53:41.139Z,0
2023-05-06T01:54:44.205Z,0
2023-05-06T01:55:46.972Z,0
2023-05-06T01:57:40.055Z,0
2023-05-06T01:58:40.056Z,0
2023-05-06T01:59:40.056Z,0
2023-05-06T02:00:40.047Z,0
2023-05-06T02:01:40.100Z,0
2023-05-06T02:03:40.111Z,0
2023-05-06T02:04:40.073Z,0
2023-05-06T02:05:40.044Z,0
2023-05-06T02:06:40.076Z,0
2023-05-06T02:08:40.052Z,0
2023-05-06T02:09:40.041Z,0
2023-05-06T02:10:40.053Z,0
2023-05-06T02:11:40.067Z,0
2023-05-06T02:13:40.050Z,0
2023-05-06T02:14:41.087Z,0
2023-05-06T02:15:44.351Z,0
2023-05-06T02:16:46.634Z,0
2023-05-06T02:18:40.065Z,0
2023-05-06T02:20:40.078Z,0
2023-05-06T02:21:40.050Z,0
2023-05-06T02:22:40.047Z,0
2023-05-06T02:23:40.059Z,0
2023-05-06T02:24:40.047Z,0
2023-05-06T02:25:40.052Z,0
2023-05-06T02:26:40.058Z,0
2023-05-06T02:27:40.058Z,0
2023-05-06T02:28:40.063Z,0
2023-05-06T02:30:40.047Z,0
2023-05-06T02:31:40.107Z,0
2023-05-06T02:32:40.079Z,0
2023-05-06T02:33:40.057Z,0
2023-05-06T02:34:40.070Z,0
2023-05-06T02:35:41.174Z,0
2023-05-06T02:36:44.412Z,0
2023-05-06T02:37:46.636Z,0
2023-05-06T02:39:40.155Z,0
2023-05-06T02:41:40.048Z,0
2023-05-06T02:42:40.117Z,0
2023-05-06T02:43:40.052Z,0
2023-05-06T02:44:40.043Z,0
2023-05-06T02:45:40.085Z,0
2023-05-06T02:46:40.054Z,0
2023-05-06T02:47:40.080Z,0
2023-05-06T02:48:40.042Z,0
2023-05-06T02:49:40.053Z,0
2023-05-06T02:50:40.062Z,0
2023-05-06T02:51:40.066Z,0
2023-05-06T02:52:40.065Z,0
2023-05-06T02:54:40.063Z,0
2023-05-06T02:55:40.066Z,0
2023-05-06T02:56:41.256Z,0
2023-05-06T02:57:44.418Z,0
2023-05-06T02:58:46.788Z,0
2023-05-06T03:00:40.351Z,0
2023-05-06T03:02:40.107Z,0
2023-05-06T03:03:40.046Z,0.23
2023-05-06T03:04:40.311Z,0.23
2023-05-06T03:05:40.056Z,0.23
2023-05-06T03:07:40.054Z,0.23
2023-05-06T03:08:40.047Z,0.23
2023-05-06T03:09:40.052Z,0.46
2023-05-06T03:10:40.043Z,0.46
2023-05-06T03:12:40.104Z,0.69
2023-05-06T03:13:40.045Z,0.69
2023-05-06T03:14:40.041Z,0.92
2023-05-06T03:15:40.040Z,1.15
2023-05-06T03:16:40.048Z,1.15
2023-05-06T03:17:41.510Z,1.38
2023-05-06T03:18:44.549Z,1.84
2023-05-06T03:19:46.841Z,2.07
2023-05-06T03:21:40.207Z,2.76
2023-05-06T03:23:40.046Z,3.68
2023-05-06T03:24:40.038Z,4.37
2023-05-06T03:25:40.045Z,5.29
2023-05-06T03:26:40.048Z,5.98
2023-05-06T03:28:40.033Z,8.28
2023-05-06T03:29:40.188Z,9.66
2023-05-06T03:31:40.316Z,12.5
2023-05-06T03:33:40.245Z,17.5
2023-05-06T03:34:40.297Z,20
2023-05-06T03:36:40.070Z,26.67
2023-05-06T03:37:40.090Z,30
2023-05-06T03:38:41.596Z,34.17
2023-05-06T03:39:44.722Z,40.83
2023-05-06T03:40:47.487Z,44.17
2023-05-06T03:42:40.051Z,55
2023-05-06T03:43:40.043Z,61.67
2023-05-06T03:44:40.058Z,69.17
2023-05-06T03:45:40.057Z,76.67
2023-05-06T03:46:40.169Z,85
2023-05-06T03:47:40.112Z,93.33
2023-05-06T03:48:40.064Z,103.33
2023-05-06T03:49:40.043Z,112.5
2023-05-06T03:50:40.069Z,121.67
2023-05-06T03:51:40.072Z,132.5
2023-05-06T03:52:40.219Z,143.33
2023-05-06T03:54:40.044Z,167.5
2023-05-06T03:55:40.072Z,180.83
2023-05-06T03:56:40.076Z,194.17
2023-05-06T03:58:40.066Z,219.17
2023-05-06T03:59:41.712Z,230.83
2023-05-06T04:00:44.820Z,248.33
2023-05-06T04:01:47.252Z,258.33
2023-05-06T04:03:40.112Z,290.83
2023-05-06T04:04:40.069Z,306.67
2023-05-06T04:05:40.065Z,322.5
2023-05-06T04:06:40.045Z,338.33
2023-05-06T04:07:40.061Z,354.17
2023-05-06T04:09:40.048Z,387.5
2023-05-06T04:10:40.057Z,403.33
2023-05-06T04:12:40.047Z,432.5
2023-05-06T04:13:40.053Z,444.17
2023-05-06T04:14:40.036Z,453.33
2023-05-06T04:15:40.048Z,466.67
2023-05-06T04:16:40.131Z,489.17
2023-05-06T04:17:40.056Z,513.33
2023-05-06T04:18:40.062Z,532.5
2023-05-06T04:19:40.040Z,557.5
2023-05-06T04:20:41.785Z,595
2023-05-06T04:21:44.840Z,626.67
2023-05-06T04:22:47.800Z,644.17
2023-05-06T04:24:40.049Z,730.83
2023-05-06T04:25:40.044Z,736.67
2023-05-06T04:26:40.045Z,762.5
2023-05-06T04:27:40.036Z,870
2023-05-06T04:28:40.029Z,1057.5
2023-05-06T04:29:40.041Z,1121.67
2023-05-06T04:30:40.033Z,1076.67
2023-05-06T04:31:40.089Z,1173.33
2023-05-06T04:33:40.049Z,1354.17
2023-05-06T04:34:40.034Z,1200.83
2023-05-06T04:35:40.039Z,1229.17
2023-05-06T04:36:40.752Z,1432.5
2023-05-06T04:37:40.034Z,1685
2023-05-06T04:38:40.047Z,1709.17
2023-05-06T04:39:40.063Z,1598.33
2023-05-06T04:40:40.042Z,1726.67
2023-05-06T04:41:40.033Z,1806.67
2023-05-06T04:42:43.168Z,2067.5
2023-05-06T04:43:45.932Z,1980.83
2023-05-06T04:45:40.074Z,2056.67
2023-05-06T04:46:40.068Z,2067.5
2023-05-06T04:48:40.036Z,1923.33
2023-05-06T04:49:40.041Z,1859.17
2023-05-06T04:50:40.040Z,1859.17
2023-05-06T04:51:40.057Z,1889.17
2023-05-06T04:52:40.056Z,1932.5
2023-05-06T04:53:40.050Z,1969.17
2023-05-06T04:55:40.048Z,2003.33
2023-05-06T04:56:40.070Z,2035
2023-05-06T04:58:40.053Z,2190
2023-05-06T04:59:40.045Z,2207.5
2023-05-06T05:00:40.048Z,2237.5
2023-05-06T05:01:40.103Z,2255
2023-05-06T05:02:40.073Z,2250
2023-05-06T05:03:43.275Z,2247.5
2023-05-06T05:04:46.006Z,2269.17
2023-05-06T05:06:40.059Z,2360.83
2023-05-06T05:07:40.046Z,2411.67
2023-05-06T05:08:40.046Z,2453.33
2023-05-06T05:09:40.036Z,2497.5
2023-05-06T05:10:40.054Z,2505.83
2023-05-06T05:12:40.077Z,2573.33
2023-05-06T05:13:40.043Z,2605
2023-05-06T05:15:40.049Z,2601.67
2023-05-06T05:16:40.114Z,2595.83
2023-05-06T05:17:40.095Z,2599.17
2023-05-06T05:18:40.067Z,2612.5
2023-05-06T05:19:40.046Z,2611.67
2023-05-06T05:20:40.066Z,2612.5
2023-05-06T05:21:40.052Z,2620
2023-05-06T05:23:40.096Z,2625.83
2023-05-06T05:24:42.734Z,2628.33
2023-05-06T05:25:45.974Z,2644.17
2023-05-06T05:27:40.059Z,2711.67
2023-05-06T05:28:40.072Z,2730.83
2023-05-06T05:30:40.067Z,2799.17
2023-05-06T05:31:40.086Z,2824.17
2023-05-06T05:32:40.108Z,2843.33
2023-05-06T05:33:40.193Z,2857.5
2023-05-06T05:35:40.045Z,2886.67
2023-05-06T05:36:40.044Z,2894.17
2023-05-06T05:37:40.048Z,2915
2023-05-06T05:38:40.062Z,2934.17
2023-05-06T05:40:40.049Z,2968.33
2023-05-06T05:41:40.041Z,2996.67
2023-05-06T05:42:40.046Z,3007.5
2023-05-06T05:43:40.070Z,3009.17
2023-05-06T05:44:40.134Z,3020.83
2023-05-06T05:45:42.689Z,3039.17
2023-05-06T05:46:46.226Z,3057.5
2023-05-06T05:48:40.111Z,3133.33
2023-05-06T05:49:40.046Z,3165.83
2023-05-06T05:50:40.049Z,3194.17
2023-05-06T05:51:40.073Z,3222.5
2023-05-06T05:52:40.047Z,3247.5
2023-05-06T05:53:40.059Z,3263.33
2023-05-06T05:55:40.063Z,3297.5
2023-05-06T05:56:40.051Z,3316.67
2023-05-06T05:57:40.047Z,3325.83
2023-05-06T05:58:40.050Z,3338.33
2023-05-06T05:59:40.060Z,3345.83
2023-05-06T06:00:40.039Z,3320.83
2023-05-06T06:01:40.035Z,3382.5
2023-05-06T06:02:40.152Z,3404.17
2023-05-06T06:03:40.189Z,3431.67
2023-05-06T06:04:40.080Z,3496.67
2023-05-06T06:05:40.290Z,3621.67
2023-05-06T06:06:42.892Z,3695
2023-05-06T06:07:46.256Z,3692.5
2023-05-06T06:09:40.082Z,3671.67
2023-05-06T06:10:40.039Z,3660.83
2023-05-06T06:11:40.041Z,3621.67
2023-05-06T06:12:40.071Z,3618.33
2023-05-06T06:13:40.058Z,3651.67
2023-05-06T06:14:40.077Z,3662.5
2023-05-06T06:16:40.102Z,3639.17
2023-05-06T06:18:40.065Z,3628.33
2023-05-06T06:19:40.066Z,3630
2023-05-06T06:21:40.049Z,3641.67
2023-05-06T06:22:40.051Z,3639.17
2023-05-06T06:23:40.049Z,3652.5
2023-05-06T06:24:40.063Z,3660.83
2023-05-06T06:26:40.505Z,3677.5
2023-05-06T06:27:42.941Z,3687.5
2023-05-06T06:28:46.338Z,3695
2023-05-06T06:30:40.040Z,3757.5
2023-05-06T06:31:40.724Z,3792.5
2023-05-06T06:32:40.064Z,3827.5
2023-05-06T06:33:40.045Z,3858.33
2023-05-06T06:34:40.045Z,3892.5
2023-05-06T06:35:40.074Z,3920
2023-05-06T06:36:40.049Z,3975
2023-05-06T06:37:40.089Z,4041.67
2023-05-06T06:39:40.075Z,4150.83
2023-05-06T06:41:40.038Z,4265
2023-05-06T06:42:40.047Z,4331.67
2023-05-06T06:43:40.050Z,4380.83
2023-05-06T06:44:40.054Z,4433.33
2023-05-06T06:46:40.048Z,4519.17
2023-05-06T06:47:40.563Z,4547.5
2023-05-06T06:48:43.102Z,4644.17
2023-05-06T06:49:46.496Z,4737.5
2023-05-06T06:51:40.059Z,4937.5
2023-05-06T06:52:40.041Z,5055.83
2023-05-06T06:53:40.037Z,5178.33
2023-05-06T06:54:40.064Z,5359.17
2023-05-06T06:55:40.054Z,5619.17
2023-05-06T06:57:40.050Z,6385
2023-05-06T06:58:40.224Z,6962.5
2023-05-06T06:59:40.221Z,8160
2023-05-06T07:01:40.078Z,13455.83
2023-05-06T07:02:40.062Z,15091.67
2023-05-06T07:03:40.046Z,16068.33
2023-05-06T07:04:40.084Z,16805
2023-05-06T07:05:40.060Z,17329.17
2023-05-06T07:06:40.027Z,17866.67
2023-05-06T07:07:40.094Z,17735.83
2023-05-06T07:08:40.638Z,17978.33
2023-05-06T07:09:43.184Z,17507.5
2023-05-06T07:10:46.602Z,18058.33
2023-05-06T07:12:40.084Z,18189.17
2023-05-06T07:13:40.031Z,18243.33
2023-05-06T07:14:40.044Z,18315.83
2023-05-06T07:15:40.042Z,18948.33
2023-05-06T07:17:40.044Z,19647.5
2023-05-06T07:18:40.057Z,19960.83
2023-05-06T07:19:40.216Z,20141.67
2023-05-06T07:21:40.041Z,20487.5
2023-05-06T07:22:40.049Z,20500
2023-05-06T07:23:40.049Z,20647.5
2023-05-06T07:24:40.053Z,20550
2023-05-06T07:25:40.048Z,20707.5
2023-05-06T07:26:40.041Z,20388.33
2023-05-06T07:27:40.039Z,20866.67
2023-05-06T07:28:40.060Z,20960
2023-05-06T07:29:40.710Z,21010
2023-05-06T07:30:43.340Z,21097.5
2023-05-06T07:31:46.139Z,21013.33
2023-05-06T07:33:40.059Z,21039.17
2023-05-06T07:34:40.040Z,21006.67
2023-05-06T07:36:40.288Z,20854.17
2023-05-06T07:37:40.055Z,20849.17
2023-05-06T07:38:40.095Z,20730
2023-05-06T07:40:40.043Z,20582.5
2023-05-06T07:41:40.034Z,20448.33
2023-05-06T07:42:42.247Z,20325
2023-05-06T07:44:40.060Z,20304.17
2023-05-06T07:45:40.036Z,20268.33
2023-05-06T07:46:40.127Z,20523.33
2023-05-06T07:47:40.211Z,20537.5
2023-05-06T07:48:40.037Z,20600.83
2023-05-06T07:49:40.033Z,20399.17
2023-05-06T07:50:40.213Z,20076.67
2023-05-06T07:51:43.373Z,20027.5
2023-05-06T07:52:46.803Z,19829.17
2023-05-06T07:54:40.048Z,20129.17
2023-05-06T07:55:40.028Z,19945.83
2023-05-06T07:56:40.056Z,19972.5
2023-05-06T07:57:40.089Z,19867.5
2023-05-06T07:58:40.180Z,19725
2023-05-06T08:00:40.046Z,19661.67
2023-05-06T08:01:40.063Z,19649.17
2023-05-06T08:02:40.207Z,19490
2023-05-06T08:03:40.388Z,19504.17
2023-05-06T08:05:40.139Z,19744.17
2023-05-06T08:06:40.263Z,19808.33
2023-05-06T08:08:40.121Z,20043.33
2023-05-06T08:09:40.330Z,19852.5
2023-05-06T08:11:40.805Z,19828.33
2023-05-06T08:12:43.519Z,19948.33
2023-05-06T08:13:46.306Z,19981.67
2023-05-06T08:15:40.347Z,20291.67
2023-05-06T08:16:40.464Z,20479.17
2023-05-06T08:18:40.070Z,20691.67
2023-05-06T08:20:40.046Z,20578.33
2023-05-06T08:21:40.064Z,20685
2023-05-06T08:23:40.055Z,21174.17
2023-05-06T08:24:40.043Z,21360.83
2023-05-06T08:26:40.049Z,21764.17
2023-05-06T08:27:40.054Z,21937.5
2023-05-06T08:28:40.038Z,21929.17
2023-05-06T08:29:40.067Z,22155.83
2023-05-06T08:30:40.046Z,22575
2023-05-06T08:31:40.076Z,22781.67
2023-05-06T08:32:40.067Z,22945
2023-05-06T08:33:41.309Z,22934.17
2023-05-06T08:34:44.298Z,23148.33
2023-05-06T08:35:46.668Z,23250
2023-05-06T08:37:40.157Z,23200
2023-05-06T08:39:40.051Z,23424.17
2023-05-06T08:40:40.059Z,23705
2023-05-06T08:41:40.046Z,23644.17
2023-05-06T08:42:40.082Z,24122.5
2023-05-06T08:44:40.051Z,24170
2023-05-06T08:45:40.128Z,23861.67
2023-05-06T08:46:40.054Z,23970.83
2023-05-06T08:47:40.091Z,24161.67
2023-05-06T08:49:40.045Z,25030
2023-05-06T08:50:40.046Z,24973.33
2023-05-06T08:51:40.042Z,25251.67
2023-05-06T08:52:40.051Z,25366.67
2023-05-06T08:53:40.051Z,25174.17
2023-05-06T08:54:41.427Z,25293.33
2023-05-06T08:55:44.410Z,25343.33
2023-05-06T08:56:47.346Z,26241.67
2023-05-06T08:58:40.195Z,25576.67
2023-05-06T09:00:40.041Z,25583.33
2023-05-06T09:01:40.111Z,25646.67
2023-05-06T09:02:42.778Z,25136.67
2023-05-06T09:04:40.062Z,25640
2023-05-06T09:05:40.063Z,25815
2023-05-06T09:06:40.041Z,26432.5
2023-05-06T09:07:40.085Z,26244.17
2023-05-06T09:09:40.045Z,26743.33
2023-05-06T09:10:40.041Z,26982.5
2023-05-06T09:11:40.052Z,26828.33
2023-05-06T09:12:40.083Z,27129.17
2023-05-06T09:14:40.050Z,27357.5
2023-05-06T09:15:41.558Z,27424.17
2023-05-06T09:16:44.705Z,27855.83
2023-05-06T09:17:47.001Z,28009.17
2023-05-06T09:19:40.054Z,28351.67
2023-05-06T09:20:40.054Z,28555.83
2023-05-06T09:21:40.047Z,28646.67
2023-05-06T09:22:40.060Z,28772.5
2023-05-06T09:23:40.035Z,28712.5
2023-05-06T09:24:40.039Z,28581.67
2023-05-06T09:25:40.051Z,28691.67
2023-05-06T09:26:40.061Z,28205
2023-05-06T09:28:40.043Z,28353.33
2023-05-06T09:29:40.101Z,28712.5
2023-05-06T09:31:40.070Z,29228.33
2023-05-06T09:32:40.750Z,29205.83
2023-05-06T09:34:40.052Z,29400
2023-05-06T09:35:40.064Z,29616.67
2023-05-06T09:36:41.200Z,29707.5
2023-05-06T09:37:44.889Z,29785
2023-05-06T09:38:47.655Z,29730.83
2023-05-06T09:40:40.060Z,29815
2023-05-06T09:41:40.053Z,29836.67
2023-05-06T09:43:40.081Z,30608.33
2023-05-06T09:45:40.057Z,31268.33
2023-05-06T09:46:40.088Z,31466.67
2023-05-06T09:47:40.100Z,30580
2023-05-06T09:48:40.059Z,30504.17
2023-05-06T09:49:40.060Z,30147.5
2023-05-06T09:50:40.221Z,29455.83
2023-05-06T09:52:40.054Z,30088.33
2023-05-06T09:53:40.061Z,30556.67
2023-05-06T09:55:40.054Z,31775
2023-05-06T09:56:40.062Z,31284.17
2023-05-06T09:57:41.863Z,31757.5
2023-05-06T09:58:44.767Z,31625.83
2023-05-06T09:59:47.148Z,30640.83
2023-05-06T10:01:40.063Z,30295
2023-05-06T10:02:40.218Z,31295
2023-05-06T10:03:40.213Z,32301.67
2023-05-06T10:04:40.233Z,31270.83
2023-05-06T10:05:40.074Z,28763.33
2023-05-06T10:07:40.071Z,31975
2023-05-06T10:08:40.054Z,31961.67
2023-05-06T10:09:40.054Z,30642.5
2023-05-06T10:10:40.075Z,30762.5
2023-05-06T10:12:40.139Z,30519.17
2023-05-06T10:13:40.045Z,31580
2023-05-06T10:14:40.060Z,30076.67
2023-05-06T10:15:40.071Z,31686.67
2023-05-06T10:17:40.148Z,32908.33
2023-05-06T10:18:41.881Z,32760
2023-05-06T10:19:44.858Z,29285
2023-05-06T10:20:47.887Z,28202.5
2023-05-06T10:22:40.069Z,27585.83
2023-05-06T10:23:40.053Z,19659.17
2023-05-06T10:24:40.061Z,31505
2023-05-06T10:25:40.056Z,31746.67
2023-05-06T10:26:40.051Z,33179.16
2023-05-06T10:27:40.070Z,34334.16
2023-05-06T10:29:40.047Z,18875
2023-05-06T10:30:40.044Z,12635
2023-05-06T10:31:40.053Z,11995.83
2023-05-06T10:32:40.062Z,29295.83
2023-05-06T10:33:42.170Z,35920
2023-05-06T10:34:40.040Z,36051.66
2023-05-06T10:35:40.052Z,35654.16
2023-05-06T10:36:40.042Z,36321.66
2023-05-06T10:37:40.047Z,36315.83
2023-05-06T10:38:40.038Z,36906.66
2023-05-06T10:39:42.267Z,37741.66
2023-05-06T10:40:44.868Z,37881.66
2023-05-06T10:42:40.042Z,37654.16
2023-05-06T10:43:40.060Z,38361.66
2023-05-06T10:44:40.061Z,37902.5
2023-05-06T10:46:40.039Z,38625.83
2023-05-06T10:47:40.057Z,36625.83
2023-05-06T10:48:40.056Z,26925
2023-05-06T10:49:40.050Z,9565.83
2023-05-06T10:50:40.046Z,17499.17
2023-05-06T10:51:40.036Z,12059.17
2023-05-06T10:52:40.069Z,10479.17
2023-05-06T10:53:40.046Z,10575.83
2023-05-06T10:54:40.043Z,15734.17
2023-05-06T10:55:40.044Z,27785
2023-05-06T10:56:40.058Z,40036.17
2023-05-06T10:57:40.061Z,41531.17
2023-05-06T10:58:40.049Z,40546.66
2023-05-06T10:59:40.049Z,40353.33
2023-05-06T11:00:41.122Z,41976.8
2023-05-06T11:01:44.527Z,42460.16
2023-05-06T11:03:40.111Z,43426.88
2023-05-06T11:04:40.224Z,44212.11
2023-05-06T11:06:40.060Z,44463.67
2023-05-06T11:08:40.051Z,17345.83
2023-05-06T11:09:40.046Z,41085
2023-05-06T11:10:40.053Z,47083.52
2023-05-06T11:11:40.062Z,47572.27
2023-05-06T11:13:40.061Z,48303.59
2023-05-06T11:14:40.050Z,48506.64
2023-05-06T11:15:40.073Z,49830.93
2023-05-06T11:16:40.072Z,50429.29
2023-05-06T11:17:40.083Z,49980.07
2023-05-06T11:18:40.055Z,49602.73
2023-05-06T11:20:40.047Z,50601.79
2023-05-06T11:21:42.231Z,51717.65
2023-05-06T11:22:45.031Z,51484.06
2023-05-06T11:24:40.046Z,53068.9
2023-05-06T11:25:40.051Z,50650.31
2023-05-06T11:26:40.044Z,53979.92
2023-05-06T11:27:40.089Z,54130.86
2023-05-06T11:29:40.045Z,51717.65
2023-05-06T11:31:40.055Z,42981.25
2023-05-06T11:32:40.105Z,34521.66
2023-05-06T11:34:40.056Z,51399.61
2023-05-06T11:35:40.052Z,53629.53
2023-05-06T11:36:40.056Z,56310.46
2023-05-06T11:37:40.077Z,52750.86
2023-05-06T11:39:41.144Z,57710.23
2023-05-06T11:40:40.039Z,58687.73
2023-05-06T11:41:40.043Z,54015.86
2023-05-06T11:42:40.072Z,62718.12
2023-05-06T11:43:43.030Z,64561.71
2023-05-06T11:44:45.930Z,65231.95
2023-05-06T11:46:40.119Z,50486.79
2023-05-06T11:47:40.113Z,36780.83
2023-05-06T11:49:40.060Z,29610
2023-05-06T11:50:40.047Z,25540
2023-05-06T11:51:40.057Z,26335
2023-05-06T11:52:40.099Z,31099.17
2023-05-06T11:53:40.050Z,45658.59
2023-05-06T11:54:40.052Z,57634.76
2023-05-06T11:55:40.059Z,47719.61
2023-05-06T11:56:40.058Z,15710
2023-05-06T11:57:40.057Z,48211.95
2023-05-06T11:58:40.060Z,43110
2023-05-06T11:59:40.049Z,59627.5
2023-05-06T12:00:40.052Z,32938.33
2023-05-06T12:01:40.055Z,71287.42
2023-05-06T12:02:40.143Z,70275.78
2023-05-06T12:03:40.466Z,69923.59
2023-05-06T12:04:42.626Z,67573.28
2023-05-06T12:05:45.998Z,39015.83
2023-05-06T12:07:40.059Z,23169.17
2023-05-06T12:08:40.069Z,58641.01
2023-05-06T12:09:40.053Z,69174.3
2023-05-06T12:10:40.045Z,69037.73
2023-05-06T12:11:40.047Z,24815
2023-05-06T12:12:40.094Z,42719.16
2023-05-06T12:14:40.072Z,25971.67
2023-05-06T12:15:40.042Z,36070.83
2023-05-06T12:16:40.218Z,63055.93
2023-05-06T12:17:40.141Z,57440.7
2023-05-06T12:19:40.046Z,50050.15
2023-05-06T12:20:40.057Z,63235.62
2023-05-06T12:21:40.063Z,63501.56
2023-05-06T12:22:40.051Z,63595
2023-05-06T12:24:40.152Z,60263.59
2023-05-06T12:25:42.622Z,60263.59
2023-05-06T12:26:45.552Z,50887.5
2023-05-06T12:28:40.049Z,57494.61
2023-05-06T12:29:40.044Z,10933.33
2023-05-06T12:30:40.054Z,33221.66
2023-05-06T12:31:40.083Z,66069.3
2023-05-06T12:32:40.106Z,66980.31
2023-05-06T12:34:40.039Z,65986.64
2023-05-06T12:35:40.048Z,66581.41
2023-05-06T12:36:40.048Z,66328.05
2023-05-06T12:37:40.063Z,15237.5
2023-05-06T12:39:40.058Z,21904.17
2023-05-06T12:40:40.033Z,52229.16
2023-05-06T12:41:40.039Z,60268.98
2023-05-06T12:42:40.061Z,60806.25
2023-05-06T12:44:40.045Z,49108.59
2023-05-06T12:45:40.334Z,50016.66
2023-05-06T12:46:42.654Z,18052.5
2023-05-06T12:47:46.182Z,29926.67
2023-05-06T12:49:40.048Z,52673.59
2023-05-06T12:50:40.064Z,55074.21
2023-05-06T12:51:40.050Z,53952.96
2023-05-06T12:53:40.064Z,44073.75
2023-05-06T12:55:40.054Z,48145.47
2023-05-06T12:56:40.050Z,42616.48
2023-05-06T12:58:40.081Z,43922.81
2023-05-06T12:59:40.053Z,48619.84
2023-05-06T13:00:40.050Z,49798.59
2023-05-06T13:01:40.188Z,26767.5
2023-05-06T13:02:40.161Z,42133.12
2023-05-06T13:03:40.088Z,42300.23
2023-05-06T13:04:40.045Z,23125.83
2023-05-06T13:05:40.043Z,22558.33
2023-05-06T13:06:40.484Z,42436.8
2023-05-06T13:07:42.830Z,44724.22
2023-05-06T13:08:46.425Z,43811.41
2023-05-06T13:10:40.046Z,45802.34
2023-05-06T13:11:40.072Z,30900
2023-05-06T13:13:40.035Z,40665.08
2023-05-06T13:14:40.530Z,39980.83
2023-05-06T13:16:40.085Z,27021.67
2023-05-06T13:17:40.120Z,19875.83
2023-05-06T13:19:40.096Z,13720.83
2023-05-06T13:21:40.089Z,16595.83
2023-05-06T13:23:40.045Z,18242.5
2023-05-06T13:24:40.088Z,14782.5
2023-05-06T13:26:40.044Z,18641.67
2023-05-06T13:27:40.514Z,28587.5
2023-05-06T13:28:42.902Z,30724.17
2023-05-06T13:29:46.473Z,24845.83
2023-05-06T13:31:40.041Z,30895
2023-05-06T13:32:40.051Z,31575
2023-05-06T13:33:40.100Z,31306.67
2023-05-06T13:34:40.057Z,30841.67
2023-05-06T13:35:40.058Z,30557.5
2023-05-06T13:36:40.047Z,30070.83
2023-05-06T13:37:40.067Z,27695
2023-05-06T13:38:40.166Z,28839.17
2023-05-06T13:40:40.042Z,25329.17
2023-05-06T13:41:40.051Z,27724.17
2023-05-06T13:42:40.050Z,28646.67
2023-05-06T13:43:40.045Z,24695
2023-05-06T13:44:40.045Z,22305.83
2023-05-06T13:45:40.074Z,21176.67
2023-05-06T13:46:40.078Z,23212.5
2023-05-06T13:47:40.130Z,21710
2023-05-06T13:48:40.563Z,17936.67
2023-05-06T13:49:43.022Z,18090
2023-05-06T13:50:45.972Z,17420.83
2023-05-06T13:52:40.036Z,16778.33
2023-05-06T13:53:40.071Z,15951.67
2023-05-06T13:54:40.048Z,16672.5
2023-05-06T13:55:40.052Z,15084.17
2023-05-06T13:56:40.042Z,15772.5
2023-05-06T13:57:40.043Z,16001.67
2023-05-06T13:58:40.059Z,16206.67
2023-05-06T14:00:40.064Z,15936.67
2023-05-06T14:02:40.096Z,17105.83
2023-05-06T14:03:40.043Z,16388.33
2023-05-06T14:04:40.064Z,16320
2023-05-06T14:05:40.039Z,16468.33
2023-05-06T14:06:40.040Z,16544.17
2023-05-06T14:07:40.571Z,16332.5
2023-05-06T14:08:40.055Z,17775
2023-05-06T14:09:40.717Z,19423.33
2023-05-06T14:10:43.163Z,18175.83
2023-05-06T14:11:46.644Z,16944.17
2023-05-06T14:13:40.039Z,16635
2023-05-06T14:14:40.044Z,16079.17
2023-05-06T14:15:40.046Z,15191.67
2023-05-06T14:16:40.100Z,14934.17
2023-05-06T14:17:40.087Z,14657.5
2023-05-06T14:19:40.049Z,14135.83
2023-05-06T14:20:40.045Z,13971.67
2023-05-06T14:22:40.041Z,13775
2023-05-06T14:23:40.042Z,13674.17
2023-05-06T14:24:40.046Z,13537.5
2023-05-06T14:25:40.047Z,13345.83
2023-05-06T14:26:40.054Z,13255
2023-05-06T14:27:40.067Z,13158.33
2023-05-06T14:28:40.035Z,13083.33
2023-05-06T14:29:40.052Z,13007.5
2023-05-06T14:30:40.780Z,12921.67
2023-05-06T14:31:43.232Z,12839.17
2023-05-06T14:32:46.702Z,12792.5
2023-05-06T14:34:40.044Z,12717.5
2023-05-06T14:35:40.038Z,12775.83
2023-05-06T14:36:40.070Z,12869.17
2023-05-06T14:37:40.064Z,13024.17
2023-05-06T14:39:40.041Z,14439.17
2023-05-06T14:40:40.057Z,15125
2023-05-06T14:42:40.249Z,14709.17
2023-05-06T14:44:40.042Z,15240
2023-05-06T14:45:40.056Z,14991.67
2023-05-06T14:46:40.076Z,14513.33
2023-05-06T14:47:40.109Z,13886.67
2023-05-06T14:48:40.108Z,13156.67
2023-05-06T14:50:40.044Z,12467.5
2023-05-06T14:51:40.033Z,12385.83
2023-05-06T14:52:41.051Z,12316.67
2023-05-06T14:53:44.120Z,12231.67
2023-05-06T14:54:46.910Z,12224.17
2023-05-06T14:56:40.039Z,12330.83
2023-05-06T14:58:40.042Z,12197.5
2023-05-06T14:59:40.046Z,12266.67
2023-05-06T15:01:40.092Z,11995.83
2023-05-06T15:03:40.065Z,11842.5
2023-05-06T15:05:40.123Z,12128.33
2023-05-06T15:07:40.050Z,12056.67
2023-05-06T15:08:40.057Z,12040
2023-05-06T15:09:40.054Z,11851.67
2023-05-06T15:10:40.177Z,11710
2023-05-06T15:12:40.059Z,11340.83
2023-05-06T15:13:41.079Z,11243.33
2023-05-06T15:14:44.178Z,11197.5
2023-05-06T15:15:46.968Z,11181.67
2023-05-06T15:17:40.059Z,11200
2023-05-06T15:18:40.234Z,11166.67
2023-05-06T15:20:40.426Z,11217.5
2023-05-06T15:22:40.042Z,11327.5
2023-05-06T15:23:40.072Z,11379.17
2023-05-06T15:24:40.068Z,11498.33
2023-05-06T15:25:40.161Z,11654.17
2023-05-06T15:26:40.047Z,12190.83
2023-05-06T15:27:40.051Z,12305.83